Time;durP1;ratioP1;P1;durP2;ratioP2;P2;SDS_P1;SDS_P2;PMS_P1;PMS_P2;Temp;Humidity;BMP_temperature;BMP_pressure;BME280_temperature;BME280_humidity;BME280_pressure;Samples;Min_cycle;Max_cycle;Signal;HPM_P1;HPM_P2
2022/09/06 00:01:54;;;;;;;9.13;6.47;;;;;;;;;;10420094;28;20036;-53
2022/09/06 00:06:55;;;;;;;8.10;5.63;;;;;;;;;;10421586;28;20029;-49
2022/09/06 00:11:55;;;;;;;11.30;5.47;;;;;;;;;;10428766;28;20558;-50
2022/09/06 00:16:55;;;;;;;9.23;5.63;;;;;;;;;;10409409;28;20482;-50
2022/09/06 00:21:56;;;;;;;8.50;5.53;;;;;;;;;;10412370;28;20467;-52
2022/09/06 00:26:56;;;;;;;8.07;5.63;;;;;;;;;;10405723;28;20474;-52
2022/09/06 00:31:58;;;;;;;8.40;4.93;;;;;;;;;;10424927;28;20029;-53
2022/09/06 00:36:58;;;;;;;7.75;4.90;;;;;;;;;;10400143;28;20491;-57
2022/09/06 00:41:58;;;;;;;6.13;4.90;;;;;;;;;;10430956;28;20082;-53
2022/09/06 00:46:59;;;;;;;8.33;4.93;;;;;;;;;;10419206;28;20025;-50
2022/09/06 00:52:03;;;;;;;10.27;4.72;;;;;;;;;;10397521;28;20370;-54
2022/09/06 00:57:04;;;;;;;6.65;3.95;;;;;;;;;;10404939;28;20199;-51
2022/09/06 01:02:05;;;;;;;6.10;4.65;;;;;;;;;;10411127;28;20373;-49
2022/09/06 01:07:25;;;;;;;14.75;4.15;;;;;;;;;;10421274;28;20025;-50
2022/09/06 01:12:40;;;;;;;6.72;4.20;;;;;;;;;;10393599;28;20432;-50
2022/09/06 01:18:18;;;;;;;4.65;4.20;;;;;;;;;;10408226;28;20045;-63
2022/09/06 01:23:46;;;;;;;6.22;4.15;;;;;;;;;;10393960;28;20021;-63
2022/09/06 01:28:49;;;;;;;7.47;4.15;;;;;;;;;;10429246;28;20391;-65
2022/09/06 01:34:10;;;;;;;7.22;3.63;;;;;;;;;;10421872;28;20346;-61
2022/09/06 01:39:26;;;;;;;6.40;3.90;;;;;;;;;;10410137;28;20071;-65
2022/09/06 01:44:29;;;;;;;10.00;3.97;;;;;;;;;;10427440;28;20030;-62
2022/09/06 01:50:11;;;;;;;7.18;3.75;;;;;;;;;;10418290;28;20029;-60
2022/09/06 01:55:43;;;;;;;6.28;4.03;;;;;;;;;;10419877;28;20045;-63
2022/09/06 02:00:56;;;;;;;10.02;4.38;;;;;;;;;;10431309;28;20065;-63
2022/09/06 02:06:07;;;;;;;8.15;4.57;;;;;;;;;;10382459;28;20029;-67
2022/09/06 02:11:08;;;;;;;9.80;4.45;;;;;;;;;;10408533;28;20385;-67
2022/09/06 02:16:12;;;;;;;6.15;3.70;;;;;;;;;;10417643;28;20121;-65
2022/09/06 02:21:17;;;;;;;4.60;3.42;;;;;;;;;;10393457;28;20074;-60
2022/09/06 02:26:22;;;;;;;6.72;4.05;;;;;;;;;;10407344;28;20106;-68
2022/09/06 02:31:24;;;;;;;7.65;3.80;;;;;;;;;;10405592;28;20025;-65
2022/09/06 02:36:24;;;;;;;15.65;3.72;;;;;;;;;;10404522;28;20040;-69
2022/09/06 02:41:26;;;;;;;5.97;4.18;;;;;;;;;;10384450;28;20050;-54
2022/09/06 02:46:27;;;;;;;4.85;3.58;;;;;;;;;;10381968;28;20025;-66
2022/09/06 02:51:27;;;;;;;5.70;4.57;;;;;;;;;;10430130;28;20032;-65
2022/09/06 02:56:27;;;;;;;5.67;4.00;;;;;;;;;;10421303;28;20566;-52
2022/09/06 03:01:28;;;;;;;4.67;4.20;;;;;;;;;;10402010;28;20034;-49
2022/09/06 03:06:29;;;;;;;7.67;4.03;;;;;;;;;;10419312;28;20027;-52
2022/09/06 03:11:29;;;;;;;5.32;4.10;;;;;;;;;;10418115;28;20464;-52
2022/09/06 03:16:30;;;;;;;5.17;3.90;;;;;;;;;;10410215;28;20033;-51
2022/09/06 03:21:30;;;;;;;3.80;3.40;;;;;;;;;;10403144;28;20033;-51
2022/09/06 03:26:31;;;;;;;7.28;4.30;;;;;;;;;;10390691;28;20017;-60
2022/09/06 03:31:31;;;;;;;5.03;3.83;;;;;;;;;;10382564;28;20030;-64
2022/09/06 03:36:31;;;;;;;4.10;3.70;;;;;;;;;;10397435;28;20042;-67
2022/09/06 03:41:32;;;;;;;6.37;4.10;;;;;;;;;;10404806;28;20132;-61
2022/09/06 03:46:32;;;;;;;7.47;3.80;;;;;;;;;;10404044;28;20045;-61
2022/09/06 03:51:33;;;;;;;7.13;4.00;;;;;;;;;;10431419;28;20025;-63
2022/09/06 03:56:33;;;;;;;5.23;4.00;;;;;;;;;;10429781;28;20046;-61
2022/09/06 04:01:33;;;;;;;6.20;4.65;;;;;;;;;;10443310;28;20143;-50
2022/09/06 04:06:34;;;;;;;7.72;4.63;;;;;;;;;;10447493;28;20039;-49
2022/09/06 04:11:34;;;;;;;8.40;4.33;;;;;;;;;;10431639;28;20133;-57
2022/09/06 04:16:34;;;;;;;5.67;4.57;;;;;;;;;;10418727;28;20116;-48
2022/09/06 04:21:35;;;;;;;9.93;5.07;;;;;;;;;;10397415;28;20037;-49
2022/09/06 04:26:35;;;;;;;8.13;4.60;;;;;;;;;;10398427;28;20038;-52
2022/09/06 04:31:36;;;;;;;6.30;5.20;;;;;;;;;;10411540;28;20458;-52
2022/09/06 04:36:36;;;;;;;7.23;5.17;;;;;;;;;;10418179;28;20103;-54
2022/09/06 04:41:36;;;;;;;9.57;4.87;;;;;;;;;;10430922;28;20479;-52
2022/09/06 04:46:40;;;;;;;9.00;5.00;;;;;;;;;;10434971;28;20029;-50
2022/09/06 04:51:41;;;;;;;10.57;4.82;;;;;;;;;;10417720;28;20033;-51
2022/09/06 04:56:41;;;;;;;5.77;4.37;;;;;;;;;;10400790;28;20068;-59
2022/09/06 05:01:41;;;;;;;11.17;5.13;;;;;;;;;;10393821;28;20033;-65
2022/09/06 05:06:42;;;;;;;9.13;4.78;;;;;;;;;;10393804;28;20030;-62
2022/09/06 05:11:43;;;;;;;12.38;4.90;;;;;;;;;;10397250;28;20487;-61
2022/09/06 05:16:44;;;;;;;14.87;5.67;;;;;;;;;;10407228;28;20363;-64
2022/09/06 05:21:44;;;;;;;18.10;6.00;;;;;;;;;;10391418;28;21093;-53
2022/09/06 05:26:45;;;;;;;10.43;3.85;;;;;;;;;;10332202;28;20047;-55
2022/09/06 05:31:45;;;;;;;17.63;4.23;;;;;;;;;;10351555;28;20328;-49
2022/09/06 05:36:45;;;;;;;14.10;3.97;;;;;;;;;;10348112;28;20029;-51
2022/09/06 05:41:46;;;;;;;5.67;3.33;;;;;;;;;;10333629;28;20390;-52
2022/09/06 05:46:47;;;;;;;11.65;4.15;;;;;;;;;;10330831;28;20036;-54
2022/09/06 05:51:51;;;;;;;8.43;3.63;;;;;;;;;;10333928;28;20423;-53
2022/09/06 05:56:51;;;;;;;12.27;4.35;;;;;;;;;;10376292;28;20045;-55
2022/09/06 06:01:53;;;;;;;14.23;3.80;;;;;;;;;;10403543;28;20045;-55
2022/09/06 06:06:53;;;;;;;12.85;4.07;;;;;;;;;;10415488;28;20469;-56
2022/09/06 06:11:53;;;;;;;6.43;4.00;;;;;;;;;;10427662;28;20044;-57
2022/09/06 06:16:54;;;;;;;13.67;4.17;;;;;;;;;;10406211;28;20083;-54
2022/09/06 06:21:55;;;;;;;13.33;4.47;;;;;;;;;;10428953;28;20029;-58
2022/09/06 06:26:55;;;;;;;14.70;4.15;;;;;;;;;;10427023;28;20466;-51
2022/09/06 06:31:55;;;;;;;10.27;3.77;;;;;;;;;;10420235;28;20018;-49
2022/09/06 06:36:56;;;;;;;10.17;4.00;;;;;;;;;;10434743;28;20028;-50
2022/09/06 06:41:57;;;;;;;8.77;3.80;;;;;;;;;;10428200;28;20477;-51
2022/09/06 06:47:00;;;;;;;4.87;3.27;;;;;;;;;;10421434;28;20108;-49
2022/09/06 06:52:01;;;;;;;7.70;3.78;;;;;;;;;;10393030;28;20392;-55
2022/09/06 06:57:03;;;;;;;6.53;3.50;;;;;;;;;;10392181;28;20054;-51
2022/09/06 07:02:03;;;;;;;5.78;3.15;;;;;;;;;;10434420;28;20046;-51
2022/09/06 07:07:04;;;;;;;3.87;3.00;;;;;;;;;;10405222;28;20417;-49
2022/09/06 07:12:04;;;;;;;6.13;3.20;;;;;;;;;;10395613;28;20456;-50
2022/09/06 07:17:05;;;;;;;5.00;3.25;;;;;;;;;;10407087;28;20055;-55
2022/09/06 07:22:05;;;;;;;3.37;2.90;;;;;;;;;;10410658;28;20480;-52
2022/09/06 07:27:05;;;;;;;6.27;2.87;;;;;;;;;;10417392;28;20025;-50
2022/09/06 07:32:06;;;;;;;7.27;3.30;;;;;;;;;;10436379;28;20029;-48
2022/09/06 07:37:06;;;;;;;7.50;3.40;;;;;;;;;;10418566;28;20461;-49
2022/09/06 07:42:07;;;;;;;7.20;3.20;;;;;;;;;;10415285;28;20045;-51
2022/09/06 07:47:09;;;;;;;6.88;3.65;;;;;;;;;;10403098;28;20389;-51
2022/09/06 07:52:09;;;;;;;3.72;2.92;;;;;;;;;;10439776;28;20481;-52
2022/09/06 07:57:10;;;;;;;7.70;3.50;;;;;;;;;;10417544;28;20048;-50
2022/09/06 08:02:11;;;;;;;6.18;3.60;;;;;;;;;;10420088;28;20458;-53
2022/09/06 08:07:11;;;;;;;6.13;3.63;;;;;;;;;;10419350;28;20064;-48
2022/09/06 08:12:12;;;;;;;5.88;3.63;;;;;;;;;;10410274;28;20033;-52
2022/09/06 08:17:12;;;;;;;4.93;3.70;;;;;;;;;;10407992;28;20030;-47
2022/09/06 08:22:12;;;;;;;4.40;3.23;;;;;;;;;;10385377;28;20037;-48
2022/09/06 08:27:13;;;;;;;9.60;3.70;;;;;;;;;;10400154;28;20105;-48
2022/09/06 08:32:13;;;;;;;5.87;3.40;;;;;;;;;;10414142;28;20033;-51
2022/09/06 08:37:14;;;;;;;6.53;3.63;;;;;;;;;;10413674;28;20060;-54
2022/09/06 08:42:14;;;;;;;7.72;3.22;;;;;;;;;;10415927;28;20037;-50
2022/09/06 08:47:17;;;;;;;7.45;3.13;;;;;;;;;;10420532;28;20037;-50
2022/09/06 08:52:37;;;;;;;9.30;3.15;;;;;;;;;;10417057;28;20164;-49
2022/09/06 08:57:57;;;;;;;6.40;3.55;;;;;;;;;;10402289;28;20041;-48
2022/09/06 09:03:13;;;;;;;9.90;3.58;;;;;;;;;;10422852;28;20029;-49
2022/09/06 09:08:45;;;;;;;4.45;2.92;;;;;;;;;;10424076;28;20487;-50
2022/09/06 09:13:45;;;;;;;7.05;3.67;;;;;;;;;;10423815;28;20306;-53
2022/09/06 09:18:50;;;;;;;4.83;3.30;;;;;;;;;;10416082;28;20187;-48
2022/09/06 09:23:54;;;;;;;6.18;3.03;;;;;;;;;;10412963;28;20029;-51
2022/09/06 09:29:21;;;;;;;3.83;2.83;;;;;;;;;;10417447;28;20029;-51
2022/09/06 09:34:29;;;;;;;6.13;3.20;;;;;;;;;;10399290;28;20035;-50
2022/09/06 09:39:37;;;;;;;5.88;3.33;;;;;;;;;;10412349;28;20043;-58
2022/09/06 09:44:44;;;;;;;7.90;3.40;;;;;;;;;;10412262;28;20115;-60
2022/09/06 09:49:44;;;;;;;7.57;3.00;;;;;;;;;;10417026;28;20467;-59
2022/09/06 09:54:46;;;;;;;6.13;2.93;;;;;;;;;;10415487;28;20166;-49
2022/09/06 09:59:54;;;;;;;3.85;3.00;;;;;;;;;;10416444;28;20099;-55
2022/09/06 10:05:12;;;;;;;5.72;2.90;;;;;;;;;;10410212;28;20032;-57
2022/09/06 10:10:20;;;;;;;3.58;2.83;;;;;;;;;;10407814;28;20044;-56
2022/09/06 10:15:35;;;;;;;8.77;3.33;;;;;;;;;;10407813;28;20060;-56
2022/09/06 10:20:42;;;;;;;5.47;3.15;;;;;;;;;;10408089;28;20037;-56
2022/09/06 10:25:51;;;;;;;7.35;3.90;;;;;;;;;;10394147;28;20040;-57
2022/09/06 10:30:54;;;;;;;4.10;3.15;;;;;;;;;;10407085;28;20037;-55
2022/09/06 10:35:57;;;;;;;6.13;3.13;;;;;;;;;;10407036;28;20030;-59
2022/09/06 10:41:18;;;;;;;4.78;3.17;;;;;;;;;;10395381;28;20385;-51
2022/09/06 10:46:24;;;;;;;4.75;2.95;;;;;;;;;;10400476;28;20037;-48
2022/09/06 10:51:33;;;;;;;4.18;3.15;;;;;;;;;;10383661;28;20034;-49
2022/09/06 10:57:02;;;;;;;8.88;3.33;;;;;;;;;;10402794;28;20052;-48
2022/09/06 11:02:39;;;;;;;7.30;3.05;;;;;;;;;;10433477;28;20032;-48
2022/09/06 11:07:42;;;;;;;8.27;3.55;;;;;;;;;;10425320;28;20028;-48
2022/09/06 11:13:04;;;;;;;5.82;2.65;;;;;;;;;;10414669;28;20036;-47
2022/09/06 11:18:05;;;;;;;7.18;3.22;;;;;;;;;;10418616;28;20033;-57
2022/09/06 11:23:36;;;;;;;3.80;3.00;;;;;;;;;;10433010;28;20037;-56
2022/09/06 11:28:52;;;;;;;4.18;2.83;;;;;;;;;;10410315;28;20482;-56
2022/09/06 11:34:09;;;;;;;7.28;3.35;;;;;;;;;;10400617;28;20088;-59
2022/09/06 11:39:10;;;;;;;3.17;2.75;;;;;;;;;;10405475;28;20041;-52
2022/09/06 11:44:10;;;;;;;4.07;3.10;;;;;;;;;;10381521;28;20532;-52
2022/09/06 11:49:13;;;;;;;6.45;3.00;;;;;;;;;;10398466;28;20386;-52
2022/09/06 11:54:17;;;;;;;5.65;2.63;;;;;;;;;;10381074;28;20029;-49
2022/09/06 11:59:17;;;;;;;6.20;3.30;;;;;;;;;;10399080;28;20111;-50
2022/09/06 12:04:18;;;;;;;10.45;3.40;;;;;;;;;;10418333;28;20358;-52
2022/09/06 12:09:39;;;;;;;8.67;3.20;;;;;;;;;;10411898;28;20389;-52
2022/09/06 12:14:47;;;;;;;5.47;3.15;;;;;;;;;;10428045;28;20025;-51
2022/09/06 12:19:53;;;;;;;10.47;3.57;;;;;;;;;;10441126;28;20166;-54
2022/09/06 12:25:02;;;;;;;4.68;2.80;;;;;;;;;;10422998;28;20532;-56
2022/09/06 12:30:10;;;;;;;6.28;3.25;;;;;;;;;;10398389;28;20121;-57
2022/09/06 12:35:16;;;;;;;;;;;;;;;;;;10408418;28;20025;-54
2022/09/06 12:40:19;;;;;;;6.47;3.00;;;;;;;;;;10391581;28;20508;-49
2022/09/06 12:45:21;;;;;;;4.90;3.30;;;;;;;;;;10411677;28;20021;-57
2022/09/06 12:50:24;;;;;;;6.75;3.28;;;;;;;;;;10403500;28;20492;-51
2022/09/06 12:55:36;;;;;;;5.32;2.92;;;;;;;;;;10395926;28;20045;-58
2022/09/06 13:00:47;;;;;;;6.43;2.90;;;;;;;;;;10406718;28;20041;-57
2022/09/06 13:05:48;;;;;;;8.30;3.33;;;;;;;;;;10407168;28;20178;-54
2022/09/06 13:10:49;;;;;;;6.70;2.90;;;;;;;;;;10407147;28;20103;-58
2022/09/06 13:15:49;;;;;;;4.20;3.17;;;;;;;;;;10405253;28;20091;-57
2022/09/06 13:20:58;;;;;;;7.35;3.10;;;;;;;;;;10408565;28;20094;-51
2022/09/06 13:25:58;;;;;;;4.90;2.70;;;;;;;;;;10405067;28;20022;-55
2022/09/06 13:31:17;;;;;;;6.70;2.97;;;;;;;;;;10408858;28;20030;-54
2022/09/06 13:36:20;;;;;;;10.00;3.35;;;;;;;;;;10398111;28;20358;-51
2022/09/06 13:41:23;;;;;;;6.43;2.50;;;;;;;;;;10408216;28;20044;-56
2022/09/06 13:46:24;;;;;;;7.05;2.97;;;;;;;;;;10408879;28;20037;-52
2022/09/06 13:51:28;;;;;;;5.65;2.67;;;;;;;;;;10396344;28;20406;-54
2022/09/06 13:56:28;;;;;;;5.78;2.53;;;;;;;;;;10407518;28;20073;-54
2022/09/06 14:01:29;;;;;;;4.80;2.83;;;;;;;;;;10396952;28;20124;-50
2022/09/06 14:06:29;;;;;;;4.07;2.70;;;;;;;;;;10395510;28;20106;-51
2022/09/06 14:11:31;;;;;;;4.05;2.63;;;;;;;;;;10393303;28;20558;-54
2022/09/06 14:16:33;;;;;;;3.72;2.90;;;;;;;;;;10400657;28;20071;-49
2022/09/06 14:21:33;;;;;;;3.10;2.45;;;;;;;;;;10393868;28;20117;-53
2022/09/06 14:26:35;;;;;;;4.83;3.13;;;;;;;;;;10406877;28;20120;-50
2022/09/06 14:31:35;;;;;;;7.40;2.60;;;;;;;;;;10421374;28;20033;-53
2022/09/06 14:36:36;;;;;;;4.47;2.80;;;;;;;;;;10407140;28;20426;-52
2022/09/06 14:41:36;;;;;;;4.68;2.63;;;;;;;;;;10411661;28;20271;-49
2022/09/06 14:46:37;;;;;;;3.20;2.60;;;;;;;;;;10406245;28;20251;-54
2022/09/06 14:51:38;;;;;;;4.43;2.40;;;;;;;;;;10378914;28;20034;-50
2022/09/06 14:56:40;;;;;;;2.92;2.63;;;;;;;;;;10398970;28;20073;-50
2022/09/06 15:01:41;;;;;;;4.20;2.42;;;;;;;;;;10413696;28;20044;-49
2022/09/06 15:06:45;;;;;;;3.20;2.50;;;;;;;;;;10405300;28;20041;-48
2022/09/06 15:11:48;;;;;;;3.70;2.63;;;;;;;;;;10422811;28;20464;-48
2022/09/06 15:16:51;;;;;;;3.22;2.70;;;;;;;;;;10416305;28;20026;-50
2022/09/06 15:21:52;;;;;;;6.88;3.13;;;;;;;;;;10406268;28;20049;-48
2022/09/06 15:26:52;;;;;;;4.53;2.75;;;;;;;;;;10392334;28;20032;-51
2022/09/06 15:31:53;;;;;;;4.43;2.70;;;;;;;;;;10399221;28;20501;-50
2022/09/06 15:36:55;;;;;;;4.82;2.78;;;;;;;;;;10397459;28;20037;-49
2022/09/06 15:41:56;;;;;;;4.55;2.70;;;;;;;;;;10416321;28;20108;-49
2022/09/06 15:46:57;;;;;;;3.95;2.80;;;;;;;;;;10421488;28;20021;-48
2022/09/06 15:52:00;;;;;;;5.20;3.05;;;;;;;;;;10435095;28;20249;-49
2022/09/06 15:57:02;;;;;;;8.20;3.33;;;;;;;;;;10425803;28;20211;-49
2022/09/06 16:02:03;;;;;;;8.75;3.17;;;;;;;;;;10436738;28;20093;-47
2022/09/06 16:07:03;;;;;;;8.85;3.83;;;;;;;;;;10416806;28;20034;-51
2022/09/06 16:12:04;;;;;;;5.82;3.10;;;;;;;;;;10402191;28;20500;-50
2022/09/06 16:17:04;;;;;;;9.82;2.80;;;;;;;;;;10418550;28;20080;-51
2022/09/06 16:22:05;;;;;;;4.57;3.03;;;;;;;;;;10397529;28;20078;-48
2022/09/06 16:27:05;;;;;;;4.53;2.77;;;;;;;;;;10409453;28;20088;-52
2022/09/06 16:32:06;;;;;;;5.40;3.00;;;;;;;;;;10402132;28;20371;-50
2022/09/06 16:37:07;;;;;;;7.40;3.50;;;;;;;;;;10410557;28;20159;-48
2022/09/06 16:42:07;;;;;;;6.68;2.50;;;;;;;;;;10400539;28;20029;-49
2022/09/06 16:47:08;;;;;;;5.63;2.70;;;;;;;;;;10416214;28;20025;-57
2022/09/06 16:52:08;;;;;;;5.80;2.83;;;;;;;;;;10427460;28;20112;-52
2022/09/06 16:57:08;;;;;;;3.93;2.43;;;;;;;;;;10435803;28;20042;-51
2022/09/06 17:02:09;;;;;;;5.00;2.80;;;;;;;;;;10418646;28;20606;-50
2022/09/06 17:07:09;;;;;;;3.40;2.50;;;;;;;;;;10417159;28;20057;-47
2022/09/06 17:12:09;;;;;;;5.10;2.47;;;;;;;;;;10424118;28;20029;-51
2022/09/06 17:17:10;;;;;;;4.63;2.33;;;;;;;;;;10421602;28;20108;-52
2022/09/06 17:22:11;;;;;;;4.25;2.63;;;;;;;;;;10416698;28;20040;-53
2022/09/06 17:27:12;;;;;;;5.53;2.42;;;;;;;;;;10416188;28;20068;-51
2022/09/06 17:32:12;;;;;;;8.43;2.88;;;;;;;;;;10408501;28;20057;-51
2022/09/06 17:37:13;;;;;;;3.87;2.60;;;;;;;;;;10408868;28;20037;-49
2022/09/06 17:42:13;;;;;;;4.07;2.05;;;;;;;;;;10404565;28;20119;-50
2022/09/06 17:47:14;;;;;;;4.95;2.45;;;;;;;;;;10406663;28;20544;-49
2022/09/06 17:52:15;;;;;;;4.75;2.30;;;;;;;;;;10392734;28;20030;-57
2022/09/06 17:57:15;;;;;;;3.47;2.23;;;;;;;;;;10420912;28;20045;-57
2022/09/06 18:02:16;;;;;;;6.70;2.60;;;;;;;;;;10414929;28;20470;-58
2022/09/06 18:07:16;;;;;;;3.15;2.20;;;;;;;;;;10405623;28;20030;-54
2022/09/06 18:12:18;;;;;;;6.83;2.33;;;;;;;;;;10406313;28;20037;-56
2022/09/06 18:17:18;;;;;;;3.85;2.58;;;;;;;;;;10415625;28;20033;-58
2022/09/06 18:22:19;;;;;;;3.37;2.10;;;;;;;;;;10390744;28;20488;-59
2022/09/06 18:27:19;;;;;;;5.67;2.53;;;;;;;;;;10402412;28;20580;-60
2022/09/06 18:32:20;;;;;;;7.73;2.57;;;;;;;;;;10415464;28;20358;-59
2022/09/06 18:37:21;;;;;;;6.60;2.60;;;;;;;;;;10398669;28;20132;-52
2022/09/06 18:42:21;;;;;;;6.10;2.30;;;;;;;;;;10409643;28;20492;-55
2022/09/06 18:47:22;;;;;;;9.63;3.15;;;;;;;;;;10398663;28;20033;-64
2022/09/06 18:52:22;;;;;;;5.73;3.33;;;;;;;;;;10408417;28;20567;-64
2022/09/06 18:57:23;;;;;;;10.40;3.67;;;;;;;;;;10411190;28;20045;-64
2022/09/06 19:02:25;;;;;;;8.85;3.40;;;;;;;;;;10409324;28;20030;-65
2022/09/06 19:07:25;;;;;;;5.38;2.97;;;;;;;;;;10410114;28;20372;-62
2022/09/06 19:12:25;;;;;;;11.63;2.93;;;;;;;;;;10409592;28;20033;-61
2022/09/06 19:17:26;;;;;;;8.90;2.93;;;;;;;;;;10402618;28;20082;-65
2022/09/06 19:22:26;;;;;;;13.32;2.88;;;;;;;;;;10408646;28;20038;-60
2022/09/06 19:27:27;;;;;;;5.97;2.67;;;;;;;;;;10436418;28;20024;-62
2022/09/06 19:32:27;;;;;;;7.18;3.20;;;;;;;;;;10426031;28;20109;-62
2022/09/06 19:37:28;;;;;;;5.90;3.30;;;;;;;;;;10435058;28;20120;-61
2022/09/06 19:42:29;;;;;;;3.30;2.85;;;;;;;;;;10434007;28;20104;-63
2022/09/06 19:47:29;;;;;;;4.87;2.87;;;;;;;;;;10422633;28;20098;-61
2022/09/06 19:52:30;;;;;;;10.27;3.03;;;;;;;;;;10421370;28;20496;-63
2022/09/06 19:57:30;;;;;;;7.27;3.60;;;;;;;;;;10419038;28;20052;-60
2022/09/06 20:02:30;;;;;;;20.73;4.20;;;;;;;;;;10411538;28;20033;-62
2022/09/06 20:07:31;;;;;;;7.20;4.20;;;;;;;;;;10397611;28;20044;-57
2022/09/06 20:12:31;;;;;;;10.73;5.07;;;;;;;;;;10411524;28;20038;-62
2022/09/06 20:17:33;;;;;;;11.80;4.37;;;;;;;;;;10399404;28;20543;-57
2022/09/06 20:22:33;;;;;;;6.00;3.42;;;;;;;;;;10386232;28;20041;-61
2022/09/06 20:27:33;;;;;;;10.07;4.00;;;;;;;;;;10388618;28;20025;-57
2022/09/06 20:32:34;;;;;;;4.05;3.15;;;;;;;;;;10397896;28;20533;-63
2022/09/06 20:37:37;;;;;;;8.93;4.40;;;;;;;;;;10389252;28;20021;-58
2022/09/06 20:42:40;;;;;;;6.60;3.80;;;;;;;;;;10409384;28;20501;-53
2022/09/06 20:47:41;;;;;;;6.55;3.97;;;;;;;;;;10403393;28;20045;-53
2022/09/06 20:52:41;;;;;;;6.13;4.10;;;;;;;;;;10402322;28;20033;-50
2022/09/06 20:57:42;;;;;;;7.60;4.70;;;;;;;;;;10403978;28;21055;-50
2022/09/06 21:02:42;;;;;;;8.38;4.13;;;;;;;;;;10404453;28;20041;-52
2022/09/06 21:07:42;;;;;;;8.90;5.20;;;;;;;;;;10395782;28;20524;-50
2022/09/06 21:12:43;;;;;;;6.87;4.73;;;;;;;;;;10404324;28;20117;-54
2022/09/06 21:17:43;;;;;;;8.07;5.67;;;;;;;;;;10408202;28;20056;-51
2022/09/06 21:22:43;;;;;;;10.93;5.20;;;;;;;;;;10393476;28;20388;-49
2022/09/06 21:27:44;;;;;;;11.67;6.30;;;;;;;;;;10398589;28;20037;-55
2022/09/06 21:32:44;;;;;;;14.00;5.77;;;;;;;;;;10414272;28;20040;-54
2022/09/06 21:37:44;;;;;;;8.00;4.80;;;;;;;;;;10397069;28;20029;-50
2022/09/06 21:42:45;;;;;;;7.27;5.07;;;;;;;;;;10410835;28;20444;-53
2022/09/06 21:47:45;;;;;;;18.17;6.07;;;;;;;;;;10408040;28;20558;-52
2022/09/06 21:52:45;;;;;;;8.43;4.93;;;;;;;;;;10405641;28;20461;-52
2022/09/06 21:57:46;;;;;;;17.30;4.60;;;;;;;;;;10402715;28;20046;-50
2022/09/06 22:02:47;;;;;;;10.85;4.10;;;;;;;;;;10409466;28;20029;-49
2022/09/06 22:07:47;;;;;;;15.50;3.83;;;;;;;;;;10405800;28;20057;-50
2022/09/06 22:12:48;;;;;;;8.70;3.90;;;;;;;;;;10408047;28;20060;-51
2022/09/06 22:17:48;;;;;;;14.90;3.67;;;;;;;;;;10407217;28;20026;-61
2022/09/06 22:22:49;;;;;;;9.97;4.30;;;;;;;;;;10421595;28;20470;-63
2022/09/06 22:27:49;;;;;;;9.88;4.05;;;;;;;;;;10407476;28;20036;-64
2022/09/06 22:32:51;;;;;;;10.90;3.87;;;;;;;;;;10394803;28;20491;-63
2022/09/06 22:37:51;;;;;;;5.93;4.20;;;;;;;;;;10407684;28;20036;-61
2022/09/06 22:42:52;;;;;;;7.23;4.07;;;;;;;;;;10401081;28;20026;-63
2022/09/06 22:47:52;;;;;;;9.70;4.87;;;;;;;;;;10403725;28;20108;-63
2022/09/06 22:52:52;;;;;;;8.10;4.93;;;;;;;;;;10409987;28;20026;-63
2022/09/06 22:57:53;;;;;;;7.07;4.80;;;;;;;;;;10406286;28;20095;-65
2022/09/06 23:02:53;;;;;;;7.20;4.80;;;;;;;;;;10408657;28;20051;-65
2022/09/06 23:07:56;;;;;;;11.27;6.00;;;;;;;;;;10404734;28;20427;-56
2022/09/06 23:13:00;;;;;;;10.80;6.78;;;;;;;;;;10405147;28;20458;-56
2022/09/06 23:18:00;;;;;;;12.68;8.00;;;;;;;;;;10388621;28;20037;-64
2022/09/06 23:23:00;;;;;;;15.50;9.07;;;;;;;;;;10396269;28;20029;-60
2022/09/06 23:28:01;;;;;;;12.53;8.70;;;;;;;;;;10379879;28;20446;-63
2022/09/06 23:33:01;;;;;;;8.60;7.80;;;;;;;;;;10375113;28;20026;-63
2022/09/06 23:38:01;;;;;;;12.70;9.13;;;;;;;;;;10402570;28;20374;-64
2022/09/06 23:43:03;;;;;;;8.80;7.50;;;;;;;;;;10383817;28;20563;-64
2022/09/06 23:48:03;;;;;;;14.85;6.85;;;;;;;;;;10382210;28;20080;-64
2022/09/06 23:53:03;;;;;;;7.80;6.70;;;;;;;;;;10403166;28;20087;-64
2022/09/06 23:58:04;;;;;;;11.73;7.57;;;;;;;;;;10408964;28;20493;-64
